Nags Head, NC

3:17 AM EDT on July 30, 2014 (GMT -0400)
KNCBUXTO2 Elev 42 ft | 35.26 °N, 75.53 °W | Change Station

Current weather conditions updated 1 minute ago

Mostly Cloudy
Mostly Cloudy
73.3 °F
Feels Like 74 °F
N
0.0
Wind Variable Wind from ENE

Today is forecast to be Cooler than yesterday.

Today
High -- | Low -- °F
--% Chance of Precip.
Yesterday
High -- | Low -- °F
Precip. -- in
6:08 AM 8:07 PM
Waxing Crescent, 10% visible
Pressure 29.96 in
Visibility 10.0 miles
Clouds Mostly Cloudy 11000 ft
Heat Index 74 °F
Dew Point 66 °F
Humidity 79%
Rainfall 0.00 in
Snow Depth Not available.
UV 0 out of 12
Pollen 5.60 out of 12
Air Quality Not available.
Flu Activity Not available.
METAR KHSE 300651Z AUTO 05006KT 10SM BKN110 23/18 A2996 RMK AO2 SLP146 T02280183 TSNO

More Conditions Fewer Conditions

Pressure 29.96 in
Visibility 10.0 miles
Clouds Mostly Cloudy 11000 ft
Heat Index 74 °F
Dew Point 66 °F
Humidity 79%
Rainfall 0.00 in
Snow Depth Not available.
UV 0 out of 12
Pollen 5.60 out of 12
Air Quality Not available.
Flu Activity Not available.
METAR KHSE 300651Z AUTO 05006KT 10SM BKN110 23/18 A2996 RMK AO2 SLP146 T02280183 TSNO

More Conditions Fewer Conditions

10-Day Weather Forecast

Almanac

Astronomy

Jul. 30, 2014 Rise Set
Actual Time 6:08 AM EDT 8:07 PM EDT
Civil Twilight 5:40 AM EDT 8:35 PM EDT
Nautical Twilight 5:06 AM EDT 9:09 PM EDT
Astronomical Twilight 4:29 AM EDT 9:46 PM EDT
Moon 9:29 AM EDT 9:58 PM EDT
Length of Visible Light 14h 55m
Length of Day
13h 59m
Tomorrow will be 1m 38s shorter.
Waxing Crescent, 10% of the Moon is Illuminated
Today
Waxing Crescent
Aug 3
First Quarter
Aug 10
Full
Aug 17
Last Quarter
Aug 25
New

Today's Extremes

State Highs State Lows

Community

WunderPhotos

Upload Photos

1,739,022 photos uploaded!

WunderBlogs® & News

By Dr. Jeff Masters
Director of Meteorology, Weather Underground
By Kari Strenfel
Meteorologist, Weather Underground
By Christopher C. Burt
Weather Historian, Weather Underground
July 29, 2014
July 29, 2014
July 29, 2014

Nearby

Snow Depth

Station Depth Elevation
No new snow has been reported.

Earthquake Activity

City Distance Mag. Time & Date
No recent earthquake activity has been reported nearby.
Minimum magnitude displayed is 2.5.

Coastal Water Temperatures

Place Temperature
Oregon Inlet Marina, NC 79.0 °F
Hatteras, NC 80.1 °F
Duck Pier, NC 75.0 °F
Money Point, VA 81.0 °F
Beaufort, NC 82.0 °F
Sewells Point, VA 79.0 °F
Chesapeake Bay Bridge Tunnel, VA 75.0 °F

Nearby Weather Stations

Station Location Temp. Heat Index Dew Point Humidity Wind Precip. Elev Updated Type
Buxton, NC 73.3 °F 74 °F 66 °F 79% ENE  at  0.0 mph - / hr 42 ft 2:16 AM EST Normal
The Peninsula, Manteo, NC 69.7 °F - 62 °F 77% NNE  at  0.0 mph 0.00 in / hr 10 ft 3:06 AM EDT Normal

Show More Stations Show Fewer Stations